Decoded Metar for LEXJ (SANTANDER in SPAIN) (IATA:SDR) | Meteo·Mobile Aviation Weather
aviador You're here:

LEXJ Decoded Metar

SANTANDER in SPAIN
Report Time2019-07-22 16:30:00
UTC Time2019-07-22 16:43:30
Flight Rules vfr VFR
Wind030° at 05 kt
W.Decomp.*RWY 11: 1.0 kt HW 4.9 kt LCW
Visibility9999 m
Phenomena:N/A
Clouds:N/A
Expected CloudBase > 1,200 ft AGL from Temp-Dew spread
CeilingNone
Temp24°C (ISA +9)
Dew Point21°C (83% RH)
QNH1018 hPa
Density Alt1,227 ft
Elevation20 ft
Report Wrong Elevation
Raw Report
LEXJ 221630Z 03005KT 330V090 CAVOK 24/21 Q1018=

Extra information for LEXJ:More info

Metar Taf Metar & Taf Last 4 Metars F.Rules Stats Wind Profile Meteogram Temp Stats Airport Information Weather charts Add Link Nearby VenuesMetar ALERT Operation Metar Decoded Social comments

Webcam Santander